Terminal Aerodrome Forecast
Issued by NWS

Home | Current Version | Previous Version | Text Only | Print | Product List | Glossary On
Versions: 1 2 3 4 5 6 7 8 9 10 11 12
736
FTUS46 KLOX 122338
TAFLGB
TAF
KLGB 122338Z 1300/1324 28008KT P6SM BKN250
     FM130400 VRB03KT P6SM BKN250
     FM130600 VRB03KT 5SM HZ SCT250
     FM130900 VRB03KT 4SM HZ SCT005
     FM131600 VRB03KT P6SM SCT250
     FM132000 19008KT P6SM SCT250=

USA.gov is the U.S. government's official web portal to all federal, state and local government web resources and services.